createdAt,value
2022-12-23T00:01:35.609Z,99618.69
2022-12-23T00:04:05.482Z,99626.34
2022-12-23T00:06:35.228Z,99629.75
2022-12-23T00:09:04.900Z,99626.41
2022-12-23T00:11:34.538Z,99633.22
2022-12-23T00:14:31.573Z,99618.81
2022-12-23T00:17:12.876Z,99621.34
2022-12-23T00:19:51.135Z,99635.75
2022-12-23T00:22:40.920Z,99597.50
2022-12-23T00:25:11.031Z,99634.16
2022-12-23T00:27:41.524Z,99628.25
2022-12-23T00:30:13.481Z,99628.28
2022-12-23T00:32:47.516Z,99607.94
2022-12-23T00:35:17.281Z,99617.28
2022-12-23T00:37:46.955Z,99619.03
2022-12-23T00:40:29.947Z,99609.72
2022-12-23T00:42:59.713Z,99624.88
2022-12-23T00:45:29.586Z,99578.06
2022-12-23T00:48:14.204Z,99620.69
2022-12-23T00:50:43.905Z,99620.69
2022-12-23T00:53:13.591Z,99631.75
2022-12-23T00:55:43.505Z,99635.22
2022-12-23T00:58:13.173Z,99622.50
2022-12-23T01:00:55.641Z,99616.47
2022-12-23T01:03:40.525Z,99630.16
2022-12-23T01:06:10.351Z,99620.75
2022-12-23T01:08:40.149Z,99619.91
2022-12-23T01:11:11.984Z,99630.19
2022-12-23T01:13:41.977Z,99622.50
2022-12-23T01:16:17.540Z,99622.53
2022-12-23T01:18:50.228Z,99616.66
2022-12-23T01:21:19.861Z,99642.22
2022-12-23T01:23:49.489Z,99632.84
2022-12-23T01:26:19.152Z,99637.94
2022-12-23T01:28:49.120Z,99628.63
2022-12-23T01:31:18.805Z,99646.53
2022-12-23T01:33:51.113Z,99641.41
2022-12-23T01:36:21.128Z,99638.91
2022-12-23T01:38:52.889Z,99638.94
2022-12-23T01:41:38.226Z,99643.19
2022-12-23T01:44:37.784Z,99616.81
2022-12-23T01:47:13.289Z,99590.34
2022-12-23T01:49:45.775Z,99645.81
2022-12-23T01:52:16.972Z,99651.78
2022-12-23T01:54:47.351Z,99621.13
2022-12-23T01:57:17.218Z,99658.63
2022-12-23T02:00:00.427Z,99635.63
2022-12-23T02:02:46.748Z,99610.03
2022-12-23T02:05:19.910Z,99663.72
2022-12-23T02:08:02.396Z,99669.66
2022-12-23T02:10:44.723Z,99674.78
2022-12-23T02:13:19.442Z,99648.44
2022-12-23T02:16:06.673Z,99669.72
2022-12-23T02:18:56.107Z,99656.97
2022-12-23T02:21:40.141Z,99657.84
2022-12-23T02:24:56.563Z,99665.50
2022-12-23T02:27:33.277Z,99649.34
2022-12-23T02:30:37.776Z,99641.66
2022-12-23T02:33:28.744Z,99637.38
2022-12-23T02:36:08.085Z,99589.69
2022-12-23T02:38:47.331Z,99665.50
2022-12-23T02:41:25.750Z,99674.03
2022-12-23T02:44:00.610Z,99673.13
2022-12-23T02:46:37.049Z,99672.31
2022-12-23T02:49:11.044Z,99647.56
2022-12-23T02:51:46.047Z,99678.19
2022-12-23T02:54:20.243Z,99672.25
2022-12-23T02:56:54.509Z,99657.75
2022-12-23T02:59:28.858Z,99686.63
2022-12-23T03:02:03.095Z,99669.66
2022-12-23T03:04:32.870Z,99695.94
2022-12-23T03:07:07.479Z,99683.28
2022-12-23T03:09:48.085Z,99679.84
2022-12-23T03:12:27.675Z,99674.75
2022-12-23T03:15:14.775Z,99684.13
2022-12-23T03:18:05.568Z,99623.56
2022-12-23T03:20:46.728Z,99707.94
2022-12-23T03:23:26.231Z,99719.00
2022-12-23T03:26:02.421Z,99713.91
2022-12-23T03:28:38.467Z,99716.50
2022-12-23T03:31:12.688Z,99713.91
2022-12-23T03:33:48.235Z,99728.38
2022-12-23T03:36:23.072Z,99727.50
2022-12-23T03:38:54.754Z,99729.19
2022-12-23T03:41:30.145Z,99712.19
2022-12-23T03:44:05.178Z,99718.13
2022-12-23T03:46:39.860Z,99732.63
2022-12-23T03:49:17.309Z,99718.13
2022-12-23T03:51:56.364Z,99733.50
2022-12-23T03:54:30.781Z,99738.59
2022-12-23T03:57:05.362Z,99744.50
2022-12-23T03:59:39.447Z,99724.88
2022-12-23T04:02:12.393Z,99746.22
2022-12-23T04:04:56.601Z,99750.47
2022-12-23T04:07:30.703Z,99752.97
2022-12-23T04:10:01.472Z,99758.03
2022-12-23T04:12:32.741Z,99743.50
2022-12-23T04:15:04.913Z,99734.13
2022-12-23T04:17:38.800Z,99763.16
2022-12-23T04:20:13.478Z,99772.47
2022-12-23T04:22:43.550Z,99769.94
2022-12-23T04:25:13.785Z,99769.09
2022-12-23T04:27:44.323Z,99774.19
2022-12-23T04:30:16.445Z,99761.44
2022-12-23T04:32:46.150Z,99769.94
2022-12-23T04:35:18.458Z,99769.94
2022-12-23T04:37:48.148Z,99773.31
2022-12-23T04:40:18.099Z,99771.63
2022-12-23T04:42:48.867Z,99780.13
2022-12-23T04:45:18.722Z,99769.84
2022-12-23T04:47:48.439Z,99766.41
2022-12-23T04:50:21.022Z,99772.38
2022-12-23T04:52:50.682Z,99784.31
2022-12-23T04:55:20.421Z,99784.22
2022-12-23T04:57:50.149Z,99774.88
2022-12-23T05:00:20.914Z,99742.47
2022-12-23T05:02:50.745Z,99792.78
2022-12-23T05:05:23.134Z,99781.63
2022-12-23T05:07:53.341Z,99750.91
2022-12-23T05:10:22.990Z,99802.13
2022-12-23T05:12:52.686Z,99794.38
2022-12-23T05:15:22.447Z,99781.38
2022-12-23T05:17:52.131Z,99818.94
2022-12-23T05:20:24.382Z,99826.59
2022-12-23T05:22:54.012Z,99834.22
2022-12-23T05:25:23.716Z,99837.66
2022-12-23T05:27:53.343Z,99821.41
2022-12-23T05:30:23.072Z,99836.72
2022-12-23T05:32:55.793Z,99840.09
2022-12-23T05:35:29.736Z,99843.50
2022-12-23T05:38:00.044Z,99846.81
2022-12-23T05:40:30.924Z,99839.94
2022-12-23T05:43:02.079Z,99844.09
2022-12-23T05:45:31.787Z,99827.69
2022-12-23T05:48:01.502Z,99835.41
2022-12-23T05:50:37.902Z,99855.94
2022-12-23T05:53:07.924Z,99864.47
2022-12-23T05:55:38.469Z,99864.50
2022-12-23T05:58:09.343Z,99861.13
2022-12-23T06:00:41.017Z,99866.28
2022-12-23T06:03:14.542Z,99859.38
2022-12-23T06:05:52.914Z,99835.41
2022-12-23T06:08:22.929Z,99878.09
2022-12-23T06:10:54.112Z,99879.72
2022-12-23T06:13:23.855Z,99801.91
2022-12-23T06:15:53.547Z,99887.34
2022-12-23T06:18:23.233Z,99887.34
2022-12-23T06:20:57.705Z,99893.31
2022-12-23T06:23:27.390Z,99900.06
2022-12-23T06:26:01.640Z,99883.00
2022-12-23T06:28:31.392Z,99889.75
2022-12-23T06:31:04.907Z,99894.75
2022-12-23T06:33:34.638Z,99915.22
2022-12-23T06:36:09.394Z,99916.00
2022-12-23T06:38:39.029Z,99904.09
2022-12-23T06:41:08.784Z,99913.41
2022-12-23T06:43:38.473Z,99887.84
2022-12-23T06:46:08.262Z,99906.69
2022-12-23T06:48:38.122Z,99881.66
2022-12-23T06:51:12.845Z,99894.44
2022-12-23T06:53:42.964Z,99914.03
2022-12-23T06:56:17.043Z,99914.03
2022-12-23T06:58:47.816Z,99929.44
2022-12-23T07:01:17.649Z,99938.84
2022-12-23T07:03:47.515Z,99918.34
2022-12-23T07:06:23.566Z,99935.53
2022-12-23T07:08:53.707Z,99917.59
2022-12-23T07:11:23.349Z,99928.00
2022-12-23T07:13:55.041Z,99921.94
2022-12-23T07:16:25.894Z,99935.63
2022-12-23T07:18:56.627Z,99952.69
2022-12-23T07:21:30.541Z,99952.69
2022-12-23T07:24:02.540Z,99956.09
2022-12-23T07:26:32.847Z,99960.34
2022-12-23T07:29:04.229Z,99944.97
2022-12-23T07:31:36.209Z,99954.41
2022-12-23T07:34:11.621Z,99938.16
2022-12-23T07:36:45.602Z,99950.91
2022-12-23T07:39:19.215Z,99978.16
2022-12-23T07:41:52.757Z,99981.50
2022-12-23T07:44:34.866Z,99965.34
2022-12-23T07:47:04.972Z,99983.19
2022-12-23T07:49:36.052Z,99978.06
2022-12-23T07:52:08.813Z,99976.41
2022-12-23T07:54:38.933Z,99972.97
2022-12-23T07:57:09.175Z,99977.22
2022-12-23T07:59:39.352Z,99989.19
2022-12-23T08:02:10.306Z,99991.81
2022-12-23T08:04:45.785Z,99985.84
2022-12-23T08:07:18.743Z,99974.75
2022-12-23T08:09:48.495Z,99920.88
2022-12-23T08:12:18.158Z,99966.19
2022-12-23T08:14:52.737Z,99973.94
2022-12-23T08:17:29.729Z,99983.31
2022-12-23T08:20:00.502Z,99979.84
2022-12-23T08:22:36.282Z,100002.06
2022-12-23T08:25:07.446Z,99998.66
2022-12-23T08:27:38.494Z,100012.34
2022-12-23T08:30:11.922Z,100005.50
2022-12-23T08:32:41.629Z,99991.72
2022-12-23T08:35:11.933Z,100026.81
2022-12-23T08:37:44.263Z,100012.22
2022-12-23T08:40:16.719Z,100017.34
2022-12-23T08:42:47.591Z,100029.31
2022-12-23T08:45:17.797Z,100024.22
2022-12-23T08:47:52.983Z,100001.22
2022-12-23T08:50:22.788Z,100009.81
2022-12-23T08:52:56.229Z,100007.19
2022-12-23T08:55:25.992Z,100004.56
2022-12-23T08:57:55.854Z,100023.41
2022-12-23T09:00:26.683Z,100030.25
2022-12-23T09:02:56.855Z,100015.69
2022-12-23T09:05:27.982Z,100003.81
2022-12-23T09:08:01.537Z,100013.28
2022-12-23T09:10:31.253Z,99989.22
2022-12-23T09:13:02.089Z,100017.56
2022-12-23T09:15:31.870Z,99970.44
2022-12-23T09:18:01.707Z,99966.84
2022-12-23T09:20:31.417Z,100020.84
2022-12-23T09:23:05.685Z,100030.28
2022-12-23T09:25:35.842Z,100017.34
2022-12-23T09:28:07.314Z,100043.81
2022-12-23T09:30:38.020Z,100006.19
2022-12-23T09:33:07.779Z,100034.31
2022-12-23T09:35:37.544Z,99997.44
2022-12-23T09:38:09.911Z,100026.66
2022-12-23T09:40:43.158Z,100041.22
2022-12-23T09:43:25.037Z,100038.75
2022-12-23T09:46:07.582Z,100019.13
2022-12-23T09:48:46.312Z,100004.66
2022-12-23T09:51:17.218Z,100043.13
2022-12-23T09:53:59.312Z,100048.28
2022-12-23T09:56:40.828Z,100025.25
2022-12-23T09:59:24.262Z,100031.25
2022-12-23T10:02:00.716Z,100048.28
2022-12-23T10:04:49.684Z,100050.81
2022-12-23T10:07:30.804Z,100033.69
2022-12-23T10:10:17.678Z,100025.19
2022-12-23T10:12:51.197Z,99967.00
2022-12-23T10:15:31.142Z,100049.09
2022-12-23T10:18:05.619Z,100040.56
2022-12-23T10:20:44.250Z,100040.63
2022-12-23T10:23:19.747Z,100042.31
2022-12-23T10:25:55.889Z,100026.97
2022-12-23T10:28:29.791Z,100014.97
2022-12-23T10:34:06.948Z,100014.19
2022-12-23T10:36:48.199Z,100000.44
2022-12-23T10:39:27.656Z,99966.25
2022-12-23T10:42:08.372Z,99986.81
2022-12-23T10:45:04.389Z,99996.25
2022-12-23T10:47:46.049Z,100024.34
2022-12-23T10:50:37.366Z,100021.81
2022-12-23T10:53:13.898Z,100018.44
2022-12-23T10:55:43.775Z,100023.63
2022-12-23T10:58:20.529Z,100031.41
2022-12-23T11:00:56.113Z,99951.91
2022-12-23T11:03:31.454Z,100007.56
2022-12-23T11:06:03.269Z,100010.13
2022-12-23T11:08:34.972Z,99999.97
2022-12-23T11:11:06.131Z,99957.31
2022-12-23T11:13:41.048Z,99938.53
2022-12-23T11:16:20.425Z,99985.53
2022-12-23T11:19:03.791Z,99969.25
2022-12-23T11:21:34.820Z,100000.81
2022-12-23T11:24:11.408Z,99942.75
2022-12-23T11:26:42.446Z,99994.94
2022-12-23T11:29:24.679Z,99994.19
2022-12-23T11:31:55.744Z,99978.00
2022-12-23T11:34:28.595Z,99960.16
2022-12-23T11:37:07.172Z,99967.06
2022-12-23T11:39:40.491Z,99962.00
2022-12-23T11:42:18.282Z,99954.31
2022-12-23T11:44:54.526Z,99932.09
2022-12-23T11:47:31.976Z,99955.22
2022-12-23T11:50:05.381Z,99942.38
2022-12-23T11:52:36.816Z,99954.38
2022-12-23T11:55:10.716Z,99895.44
2022-12-23T11:57:45.008Z,99933.81
2022-12-23T12:00:25.289Z,99905.56
2022-12-23T12:02:57.245Z,99918.38
2022-12-23T12:05:33.674Z,99932.94
2022-12-23T12:08:06.598Z,99948.34
2022-12-23T12:10:39.470Z,99887.72
2022-12-23T12:13:22.731Z,99933.06
2022-12-23T12:16:05.055Z,99881.81
2022-12-23T12:18:36.594Z,99897.97
2022-12-23T12:21:12.254Z,99924.53
2022-12-23T12:23:48.941Z,99866.88
2022-12-23T12:26:25.179Z,99884.78
2022-12-23T12:29:01.924Z,99843.78
2022-12-23T12:31:38.520Z,99905.28
2022-12-23T12:34:21.074Z,99878.78
2022-12-23T12:36:55.852Z,99877.88
2022-12-23T12:39:31.295Z,99876.97
2022-12-23T12:42:10.396Z,99859.03
2022-12-23T12:44:48.553Z,99804.47
2022-12-23T12:47:52.644Z,99853.13
2022-12-23T12:50:24.731Z,99841.22
2022-12-23T12:52:56.499Z,99833.56
2022-12-23T12:55:32.430Z,99855.72
2022-12-23T12:58:04.304Z,99828.38
2022-12-23T13:00:48.339Z,99851.47
2022-12-23T13:03:39.367Z,99854.91
2022-12-23T13:06:23.717Z,99799.44
2022-12-23T13:09:09.053Z,99851.59
2022-12-23T13:11:45.524Z,99820.84
2022-12-23T13:14:33.958Z,99840.50
2022-12-23T13:17:11.396Z,99847.25
2022-12-23T13:19:52.240Z,99811.38
2022-12-23T13:22:30.105Z,99801.09
2022-12-23T13:25:08.135Z,99836.09
2022-12-23T13:27:41.745Z,99816.44
2022-12-23T13:30:17.311Z,99829.13
2022-12-23T13:33:08.366Z,99811.28
2022-12-23T13:35:50.907Z,99797.66
2022-12-23T13:38:34.206Z,99813.03
2022-12-23T13:41:13.403Z,99803.56
2022-12-23T13:43:49.684Z,99778.00
2022-12-23T13:46:28.603Z,99796.78
2022-12-23T13:49:05.461Z,99781.41
2022-12-23T13:51:43.296Z,99805.31
2022-12-23T13:54:24.695Z,99793.34
2022-12-23T13:57:08.427Z,99809.50
2022-12-23T13:59:44.470Z,99712.31
2022-12-23T14:03:00.787Z,99772.81
2022-12-23T14:05:46.565Z,99783.97
2022-12-23T14:08:32.367Z,99789.03
2022-12-23T14:11:06.769Z,99764.28
2022-12-23T14:13:44.407Z,99770.34
2022-12-23T14:16:31.552Z,99789.91
2022-12-23T14:19:21.919Z,99739.47
2022-12-23T14:22:00.090Z,99665.25
2022-12-23T14:25:07.685Z,99769.31
2022-12-23T14:27:49.381Z,99781.31
2022-12-23T14:30:24.111Z,99777.91
2022-12-23T14:33:00.033Z,99770.16
2022-12-23T14:36:00.563Z,99763.25
2022-12-23T14:38:33.991Z,99752.19
2022-12-23T14:41:25.371Z,99753.59
2022-12-23T14:44:02.843Z,99740.56
2022-12-23T14:47:01.137Z,99756.59
2022-12-23T14:49:41.675Z,99718.09
2022-12-23T14:52:54.298Z,99744.63
2022-12-23T14:55:56.793Z,99729.19
2022-12-23T14:58:50.890Z,99724.88
2022-12-23T15:01:24.041Z,99705.84
2022-12-23T15:04:01.303Z,99719.22
2022-12-23T15:06:38.013Z,99726.81
2022-12-23T15:09:27.834Z,99720.84
2022-12-23T15:12:00.525Z,99714.16
2022-12-23T15:14:38.455Z,99709.03
2022-12-23T15:17:19.235Z,99661.94
2022-12-23T15:19:49.956Z,99669.78
2022-12-23T15:22:25.630Z,99696.59
2022-12-23T15:25:02.141Z,99674.06
2022-12-23T15:27:35.393Z,99690.28
2022-12-23T15:30:14.754Z,99670.69
2022-12-23T15:32:47.061Z,99674.88
2022-12-23T15:35:22.109Z,99682.50
2022-12-23T15:37:54.063Z,99684.25
2022-12-23T15:40:29.223Z,99649.28
2022-12-23T15:42:59.165Z,99690.16
2022-12-23T15:45:41.687Z,99681.56
2022-12-23T15:48:26.636Z,99687.94
2022-12-23T15:51:02.949Z,99676.78
2022-12-23T15:53:40.088Z,99686.88
2022-12-23T15:56:12.672Z,99677.44
2022-12-23T15:58:45.220Z,99658.72
2022-12-23T16:01:22.083Z,99678.28
2022-12-23T16:03:55.751Z,99660.44
2022-12-23T16:06:29.841Z,99666.41
2022-12-23T16:09:02.349Z,99652.00
2022-12-23T16:11:44.924Z,99651.13
2022-12-23T16:14:27.946Z,99647.69
2022-12-23T16:17:03.675Z,99655.34
2022-12-23T16:19:42.520Z,99628.00
2022-12-23T16:22:22.372Z,99646.81
2022-12-23T16:24:55.029Z,99633.09
2022-12-23T16:27:36.090Z,99662.06
2022-12-23T16:30:17.491Z,99600.69
2022-12-23T16:32:55.815Z,99652.72
2022-12-23T16:35:38.895Z,99648.47
2022-12-23T16:38:19.067Z,99646.75
2022-12-23T16:40:51.614Z,99612.59
2022-12-23T16:43:23.274Z,99634.78
2022-12-23T16:45:55.482Z,99634.84
2022-12-23T16:48:33.050Z,99616.97
2022-12-23T16:51:04.902Z,99627.16
2022-12-23T16:53:36.153Z,99605.13
2022-12-23T16:56:12.605Z,99610.19
2022-12-23T16:58:43.319Z,99596.56
2022-12-23T17:01:17.114Z,99574.69
2022-12-23T17:03:49.485Z,99589.88
2022-12-23T17:06:20.686Z,99577.03
2022-12-23T17:08:50.839Z,99581.22
2022-12-23T17:11:25.969Z,99580.28
2022-12-23T17:14:03.510Z,99560.72
2022-12-23T17:16:35.854Z,99554.63
2022-12-23T17:19:08.274Z,99521.50
2022-12-23T17:21:39.720Z,99564.13
2022-12-23T17:24:13.506Z,99566.66
2022-12-23T17:26:44.402Z,99549.63
2022-12-23T17:29:15.360Z,99479.72
2022-12-23T17:31:46.111Z,99553.88
2022-12-23T17:34:20.771Z,99558.13
2022-12-23T17:36:52.695Z,99556.31
2022-12-23T17:39:24.593Z,99547.84
2022-12-23T17:41:55.415Z,99537.59
2022-12-23T17:44:26.223Z,99535.97
2022-12-23T17:46:56.924Z,99511.19
2022-12-23T17:49:29.563Z,99530.06
2022-12-23T17:51:59.345Z,99530.91
2022-12-23T17:54:29.043Z,99520.69
2022-12-23T17:57:00.137Z,99530.88
2022-12-23T17:59:29.931Z,99535.06
2022-12-23T18:02:01.701Z,99537.59
2022-12-23T18:04:34.984Z,99526.53
2022-12-23T18:07:05.675Z,99531.72
2022-12-23T18:09:35.415Z,99534.28
2022-12-23T18:12:05.075Z,99517.28
2022-12-23T18:14:35.927Z,99532.50
2022-12-23T18:17:05.751Z,99516.28
2022-12-23T18:19:38.044Z,99503.56
2022-12-23T18:22:08.784Z,99513.88
2022-12-23T18:24:38.488Z,99549.56
2022-12-23T18:27:16.016Z,99546.13
2022-12-23T18:29:47.072Z,99542.66
2022-12-23T18:32:28.215Z,99552.88
2022-12-23T18:35:01.662Z,99541.00
2022-12-23T18:37:32.417Z,99542.81
2022-12-23T18:40:02.172Z,99535.97
2022-12-23T18:42:33.564Z,99533.50
2022-12-23T18:45:03.383Z,99526.69
2022-12-23T18:47:33.101Z,99507.97
2022-12-23T18:50:05.391Z,99520.78
2022-12-23T18:52:35.064Z,99517.28
2022-12-23T18:55:04.787Z,99508.88
2022-12-23T18:57:34.488Z,99520.72
2022-12-23T19:00:05.989Z,99473.81
2022-12-23T19:02:37.749Z,99525.72
2022-12-23T19:05:18.205Z,99530.88
2022-12-23T19:07:48.375Z,99530.97
2022-12-23T19:10:21.411Z,99535.19
2022-12-23T19:12:51.328Z,99538.50
2022-12-23T19:15:21.784Z,99530.88
2022-12-23T19:17:53.046Z,99512.25
2022-12-23T19:20:25.414Z,99504.44
2022-12-23T19:22:55.144Z,99513.84
2022-12-23T19:25:25.927Z,99515.41
2022-12-23T19:27:55.602Z,99538.41
2022-12-23T19:30:26.527Z,99518.09
2022-12-23T19:32:57.354Z,99484.09
2022-12-23T19:35:30.904Z,99531.88
2022-12-23T19:38:01.652Z,99548.00
2022-12-23T19:40:32.332Z,99526.78
2022-12-23T19:43:02.142Z,99526.78
2022-12-23T19:45:32.932Z,99517.41
2022-12-23T19:48:06.522Z,99553.94
2022-12-23T19:50:39.823Z,99555.47
2022-12-23T19:53:09.489Z,99544.41
2022-12-23T19:55:40.236Z,99545.38
2022-12-23T19:58:09.951Z,99555.56
2022-12-23T20:00:43.039Z,99541.03
2022-12-23T20:03:13.861Z,99569.97
2022-12-23T20:05:50.143Z,99586.06
2022-12-23T20:08:19.852Z,99575.06
2022-12-23T20:10:50.583Z,99563.22
2022-12-23T20:13:21.290Z,99573.53
2022-12-23T20:15:52.418Z,99534.34
2022-12-23T20:18:24.640Z,99550.53
2022-12-23T20:20:57.776Z,99554.78
2022-12-23T20:23:27.734Z,99530.88
2022-12-23T20:25:57.552Z,99569.34
2022-12-23T20:28:27.299Z,99564.22
2022-12-23T20:31:09.816Z,99577.03
2022-12-23T20:33:42.650Z,99562.50
2022-12-23T20:36:17.617Z,99542.91
2022-12-23T20:38:49.239Z,99563.47
2022-12-23T20:41:21.334Z,99573.59
2022-12-23T20:44:23.441Z,99561.66
2022-12-23T20:46:42.591Z,99566.75
2022-12-23T20:49:12.383Z,99589.75
2022-12-23T20:51:44.655Z,99561.69
2022-12-23T20:54:14.475Z,99589.75
2022-12-23T20:56:44.187Z,99560.81
2022-12-23T20:59:13.846Z,99571.84
2022-12-23T21:01:46.412Z,99610.19
2022-12-23T21:04:18.570Z,99591.44
2022-12-23T21:06:50.964Z,99607.94
2022-12-23T21:09:21.673Z,99609.56
2022-12-23T21:11:51.584Z,99613.72
2022-12-23T21:14:21.486Z,99633.09
2022-12-23T21:16:51.355Z,99631.28
2022-12-23T21:19:23.186Z,99619.47
2022-12-23T21:21:56.471Z,99634.78
2022-12-23T21:24:27.291Z,99622.00
2022-12-23T21:26:57.992Z,99629.56
2022-12-23T21:29:28.680Z,99633.75
2022-12-23T21:31:59.839Z,99641.28
2022-12-23T21:34:29.571Z,99615.63
2022-12-23T21:37:03.077Z,99657.44
2022-12-23T21:39:34.825Z,99646.28
2022-12-23T21:42:05.583Z,99659.97
2022-12-23T21:44:35.262Z,99668.47
2022-12-23T21:47:06.086Z,99637.06
2022-12-23T21:49:35.832Z,99654.97
2022-12-23T21:52:08.164Z,99638.75
2022-12-23T21:54:40.014Z,99666.88
2022-12-23T21:57:10.800Z,99659.13
2022-12-23T21:59:40.517Z,99681.28
2022-12-23T22:02:10.241Z,99607.19
2022-12-23T22:04:40.950Z,99652.53
2022-12-23T22:07:13.441Z,99668.00
2022-12-23T22:09:43.253Z,99709.28
2022-12-23T22:12:13.083Z,99706.50
2022-12-23T22:14:42.824Z,99695.41
2022-12-23T22:17:12.735Z,99671.63
2022-12-23T22:19:43.562Z,99702.94
2022-12-23T22:22:16.870Z,99701.91
2022-12-23T22:24:46.519Z,99714.78
2022-12-23T22:27:16.225Z,99701.25
2022-12-23T22:29:45.924Z,99680.88
2022-12-23T22:32:15.714Z,99700.44
2022-12-23T22:34:46.395Z,99720.00
2022-12-23T22:37:20.884Z,99696.28
2022-12-23T22:39:51.833Z,99720.09
2022-12-23T22:42:21.702Z,99716.78
2022-12-23T22:44:51.389Z,99724.53
2022-12-23T22:47:22.287Z,99688.72
2022-12-23T22:49:52.024Z,99721.16
2022-12-23T22:52:31.455Z,99731.38
2022-12-23T22:55:01.150Z,99682.69
2022-12-23T22:57:31.922Z,99717.19
2022-12-23T23:00:06.058Z,99694.59
2022-12-23T23:02:42.235Z,99689.19
2022-12-23T23:05:14.155Z,99734.28
2022-12-23T23:07:46.624Z,99701.00
2022-12-23T23:10:18.677Z,99741.88
2022-12-23T23:12:48.359Z,99734.16
2022-12-23T23:15:18.746Z,99707.66
2022-12-23T23:17:49.501Z,99749.50
2022-12-23T23:20:19.256Z,99706.00
2022-12-23T23:22:52.067Z,99732.44
2022-12-23T23:25:23.589Z,99753.66
2022-12-23T23:27:55.265Z,99724.78
2022-12-23T23:30:25.043Z,99742.66
2022-12-23T23:32:55.851Z,99743.53
2022-12-23T23:35:25.567Z,99731.50
2022-12-23T23:37:58.859Z,99754.50
2022-12-23T23:40:28.606Z,99760.34
2022-12-23T23:42:59.383Z,99742.56
2022-12-23T23:45:30.339Z,99722.94
2022-12-23T23:48:00.393Z,99758.69
2022-12-23T23:50:31.096Z,99759.50
2022-12-23T23:53:03.535Z,99696.38
2022-12-23T23:55:34.513Z,99744.16
2022-12-23T23:58:06.573Z,99738.28
